sensor_id;sensor_type;location;lat;lon;timestamp;temperature;humidity
7708;DHT22;3896;48.758;8.888;2023-06-22T00:00:44;22.20;99.90
7708;DHT22;3896;48.758;8.888;2023-06-22T00:03:10;22.10;99.90
7708;DHT22;3896;48.758;8.888;2023-06-22T00:05:35;22.10;99.90
7708;DHT22;3896;48.758;8.888;2023-06-22T00:08:04;22.00;99.90
7708;DHT22;3896;48.758;8.888;2023-06-22T00:10:30;22.00;99.90
7708;DHT22;3896;48.758;8.888;2023-06-22T00:12:56;22.00;99.90
7708;DHT22;3896;48.758;8.888;2023-06-22T00:15:21;21.90;99.90
7708;DHT22;3896;48.758;8.888;2023-06-22T00:17:47;21.90;99.90
7708;DHT22;3896;48.758;8.888;2023-06-22T00:20:12;21.80;99.90
7708;DHT22;3896;48.758;8.888;2023-06-22T00:22:40;21.80;99.90
7708;DHT22;3896;48.758;8.888;2023-06-22T00:25:07;21.70;99.90
7708;DHT22;3896;48.758;8.888;2023-06-22T00:27:32;21.70;99.90
7708;DHT22;3896;48.758;8.888;2023-06-22T00:29:59;21.60;99.90
7708;DHT22;3896;48.758;8.888;2023-06-22T00:32:25;21.60;99.90
7708;DHT22;3896;48.758;8.888;2023-06-22T00:34:50;21.60;99.90
7708;DHT22;3896;48.758;8.888;2023-06-22T00:37:16;21.50;99.90
7708;DHT22;3896;48.758;8.888;2023-06-22T00:39:43;21.50;99.90
7708;DHT22;3896;48.758;8.888;2023-06-22T00:42:09;21.40;99.90
7708;DHT22;3896;48.758;8.888;2023-06-22T00:44:37;21.40;99.90
7708;DHT22;3896;48.758;8.888;2023-06-22T00:47:03;21.30;99.90
7708;DHT22;3896;48.758;8.888;2023-06-22T00:49:30;21.30;99.90
7708;DHT22;3896;48.758;8.888;2023-06-22T00:51:57;21.20;99.90
7708;DHT22;3896;48.758;8.888;2023-06-22T00:54:22;21.20;99.90
7708;DHT22;3896;48.758;8.888;2023-06-22T00:56:53;21.20;99.90
7708;DHT22;3896;48.758;8.888;2023-06-22T00:59:20;21.10;99.90
7708;DHT22;3896;48.758;8.888;2023-06-22T01:01:46;21.10;99.90
7708;DHT22;3896;48.758;8.888;2023-06-22T01:04:12;21.10;99.90
7708;DHT22;3896;48.758;8.888;2023-06-22T01:06:47;21.10;99.90
7708;DHT22;3896;48.758;8.888;2023-06-22T01:09:24;21.00;99.90
7708;DHT22;3896;48.758;8.888;2023-06-22T01:11:57;21.00;99.90
7708;DHT22;3896;48.758;8.888;2023-06-22T01:14:43;21.00;99.90
7708;DHT22;3896;48.758;8.888;2023-06-22T01:17:11;20.90;99.90
7708;DHT22;3896;48.758;8.888;2023-06-22T01:19:52;20.90;99.90
7708;DHT22;3896;48.758;8.888;2023-06-22T01:22:24;20.80;99.90
7708;DHT22;3896;48.758;8.888;2023-06-22T01:25:09;20.80;99.90
7708;DHT22;3896;48.758;8.888;2023-06-22T01:30:41;20.70;99.90
7708;DHT22;3896;48.758;8.888;2023-06-22T01:33:10;20.70;99.90
7708;DHT22;3896;48.758;8.888;2023-06-22T01:35:37;20.60;99.90
7708;DHT22;3896;48.758;8.888;2023-06-22T01:38:04;20.60;99.90
7708;DHT22;3896;48.758;8.888;2023-06-22T01:40:32;20.60;99.90
7708;DHT22;3896;48.758;8.888;2023-06-22T01:43:00;20.60;99.90
7708;DHT22;3896;48.758;8.888;2023-06-22T01:45:27;20.50;99.90
7708;DHT22;3896;48.758;8.888;2023-06-22T01:47:53;20.50;99.90
7708;DHT22;3896;48.758;8.888;2023-06-22T01:50:19;20.50;99.90
7708;DHT22;3896;48.758;8.888;2023-06-22T01:52:44;20.50;99.90
7708;DHT22;3896;48.758;8.888;2023-06-22T01:55:10;20.40;99.90
7708;DHT22;3896;48.758;8.888;2023-06-22T01:57:36;20.40;99.90
7708;DHT22;3896;48.758;8.888;2023-06-22T02:00:04;20.40;99.90
7708;DHT22;3896;48.758;8.888;2023-06-22T02:02:40;20.40;99.90
7708;DHT22;3896;48.758;8.888;2023-06-22T02:05:12;20.30;99.90
7708;DHT22;3896;48.758;8.888;2023-06-22T02:07:54;20.30;99.90
7708;DHT22;3896;48.758;8.888;2023-06-22T02:10:23;20.20;99.90
7708;DHT22;3896;48.758;8.888;2023-06-22T02:12:50;20.20;99.90
7708;DHT22;3896;48.758;8.888;2023-06-22T02:15:17;20.20;99.90
7708;DHT22;3896;48.758;8.888;2023-06-22T02:17:42;20.20;99.90
7708;DHT22;3896;48.758;8.888;2023-06-22T02:20:18;20.20;99.90
7708;DHT22;3896;48.758;8.888;2023-06-22T02:22:46;20.10;99.90
7708;DHT22;3896;48.758;8.888;2023-06-22T02:25:12;20.10;99.90
7708;DHT22;3896;48.758;8.888;2023-06-22T02:27:38;20.10;99.90
7708;DHT22;3896;48.758;8.888;2023-06-22T02:30:09;20.00;99.90
7708;DHT22;3896;48.758;8.888;2023-06-22T02:32:35;20.00;99.90
7708;DHT22;3896;48.758;8.888;2023-06-22T02:35:01;20.00;99.90
7708;DHT22;3896;48.758;8.888;2023-06-22T02:37:30;20.00;99.90
7708;DHT22;3896;48.758;8.888;2023-06-22T02:39:56;19.90;99.90
7708;DHT22;3896;48.758;8.888;2023-06-22T02:42:21;19.90;99.90
7708;DHT22;3896;48.758;8.888;2023-06-22T02:44:47;19.90;99.90
7708;DHT22;3896;48.758;8.888;2023-06-22T02:47:13;19.80;99.90
7708;DHT22;3896;48.758;8.888;2023-06-22T02:49:39;19.80;99.90
7708;DHT22;3896;48.758;8.888;2023-06-22T02:52:04;19.80;99.90
7708;DHT22;3896;48.758;8.888;2023-06-22T02:54:30;19.70;99.90
7708;DHT22;3896;48.758;8.888;2023-06-22T02:56:55;19.70;99.90
7708;DHT22;3896;48.758;8.888;2023-06-22T02:59:21;19.70;99.90
7708;DHT22;3896;48.758;8.888;2023-06-22T03:01:49;19.70;99.90
7708;DHT22;3896;48.758;8.888;2023-06-22T03:04:15;19.70;99.90
7708;DHT22;3896;48.758;8.888;2023-06-22T03:06:41;19.60;99.90
7708;DHT22;3896;48.758;8.888;2023-06-22T03:09:07;19.60;99.90
7708;DHT22;3896;48.758;8.888;2023-06-22T03:11:33;19.60;99.90
7708;DHT22;3896;48.758;8.888;2023-06-22T03:14:00;19.50;99.90
7708;DHT22;3896;48.758;8.888;2023-06-22T03:16:26;19.50;99.90
7708;DHT22;3896;48.758;8.888;2023-06-22T03:18:52;19.50;99.90
7708;DHT22;3896;48.758;8.888;2023-06-22T03:21:22;19.50;99.90
7708;DHT22;3896;48.758;8.888;2023-06-22T03:23:47;19.50;99.90
7708;DHT22;3896;48.758;8.888;2023-06-22T03:26:17;19.40;99.90
7708;DHT22;3896;48.758;8.888;2023-06-22T03:28:43;19.30;99.90
7708;DHT22;3896;48.758;8.888;2023-06-22T03:31:08;19.30;99.90
7708;DHT22;3896;48.758;8.888;2023-06-22T03:33:34;19.30;99.90
7708;DHT22;3896;48.758;8.888;2023-06-22T03:35:59;19.20;99.90
7708;DHT22;3896;48.758;8.888;2023-06-22T03:38:25;19.20;99.90
7708;DHT22;3896;48.758;8.888;2023-06-22T03:40:50;19.20;99.90
7708;DHT22;3896;48.758;8.888;2023-06-22T03:43:16;19.10;99.90
7708;DHT22;3896;48.758;8.888;2023-06-22T03:45:41;19.10;99.90
7708;DHT22;3896;48.758;8.888;2023-06-22T03:48:07;19.10;99.90
7708;DHT22;3896;48.758;8.888;2023-06-22T03:50:33;19.10;99.90
7708;DHT22;3896;48.758;8.888;2023-06-22T03:52:58;19.10;99.90
7708;DHT22;3896;48.758;8.888;2023-06-22T03:55:24;19.00;99.90
7708;DHT22;3896;48.758;8.888;2023-06-22T03:57:49;19.00;99.90
7708;DHT22;3896;48.758;8.888;2023-06-22T04:00:15;19.00;99.90
7708;DHT22;3896;48.758;8.888;2023-06-22T04:02:41;19.00;99.90
7708;DHT22;3896;48.758;8.888;2023-06-22T04:05:09;19.00;99.90
7708;DHT22;3896;48.758;8.888;2023-06-22T04:07:34;19.00;99.90
7708;DHT22;3896;48.758;8.888;2023-06-22T04:10:03;19.00;99.90
7708;DHT22;3896;48.758;8.888;2023-06-22T04:12:29;18.90;99.90
7708;DHT22;3896;48.758;8.888;2023-06-22T04:14:54;18.90;99.90
7708;DHT22;3896;48.758;8.888;2023-06-22T04:17:20;18.90;99.90
7708;DHT22;3896;48.758;8.888;2023-06-22T04:19:45;18.90;99.90
7708;DHT22;3896;48.758;8.888;2023-06-22T04:22:11;18.90;99.90
7708;DHT22;3896;48.758;8.888;2023-06-22T04:24:37;18.90;99.90
7708;DHT22;3896;48.758;8.888;2023-06-22T04:27:03;18.90;99.90
7708;DHT22;3896;48.758;8.888;2023-06-22T04:29:31;18.90;99.90
7708;DHT22;3896;48.758;8.888;2023-06-22T04:31:57;18.90;99.90
7708;DHT22;3896;48.758;8.888;2023-06-22T04:34:24;18.90;99.90
7708;DHT22;3896;48.758;8.888;2023-06-22T04:36:51;18.90;99.90
7708;DHT22;3896;48.758;8.888;2023-06-22T04:39:17;18.90;99.90
7708;DHT22;3896;48.758;8.888;2023-06-22T04:41:44;19.00;99.90
7708;DHT22;3896;48.758;8.888;2023-06-22T04:44:14;19.00;99.90
7708;DHT22;3896;48.758;8.888;2023-06-22T04:46:49;19.00;99.90
7708;DHT22;3896;48.758;8.888;2023-06-22T04:49:19;19.00;99.90
7708;DHT22;3896;48.758;8.888;2023-06-22T04:51:45;19.00;99.90
7708;DHT22;3896;48.758;8.888;2023-06-22T04:54:10;19.10;99.90
7708;DHT22;3896;48.758;8.888;2023-06-22T04:56:36;19.10;99.90
7708;DHT22;3896;48.758;8.888;2023-06-22T04:59:03;19.10;99.90
7708;DHT22;3896;48.758;8.888;2023-06-22T05:01:28;19.20;99.90
7708;DHT22;3896;48.758;8.888;2023-06-22T05:03:56;19.20;99.90
7708;DHT22;3896;48.758;8.888;2023-06-22T05:06:23;19.20;99.90
7708;DHT22;3896;48.758;8.888;2023-06-22T05:08:55;19.30;99.90
7708;DHT22;3896;48.758;8.888;2023-06-22T05:11:24;19.30;99.90
7708;DHT22;3896;48.758;8.888;2023-06-22T05:13:49;19.40;99.90
7708;DHT22;3896;48.758;8.888;2023-06-22T05:16:15;19.40;99.90
7708;DHT22;3896;48.758;8.888;2023-06-22T05:18:40;19.40;99.90
7708;DHT22;3896;48.758;8.888;2023-06-22T05:21:07;19.50;99.90
7708;DHT22;3896;48.758;8.888;2023-06-22T05:23:32;19.50;99.90
7708;DHT22;3896;48.758;8.888;2023-06-22T05:25:58;19.60;99.90
7708;DHT22;3896;48.758;8.888;2023-06-22T05:28:23;19.70;99.90
7708;DHT22;3896;48.758;8.888;2023-06-22T05:30:49;19.70;99.90
7708;DHT22;3896;48.758;8.888;2023-06-22T05:33:15;19.70;99.90
7708;DHT22;3896;48.758;8.888;2023-06-22T05:35:40;19.80;99.90
7708;DHT22;3896;48.758;8.888;2023-06-22T05:38:06;19.80;99.90
7708;DHT22;3896;48.758;8.888;2023-06-22T05:40:32;19.90;99.90
7708;DHT22;3896;48.758;8.888;2023-06-22T05:42:57;20.00;99.90
7708;DHT22;3896;48.758;8.888;2023-06-22T05:45:24;19.90;99.90
7708;DHT22;3896;48.758;8.888;2023-06-22T05:47:50;20.00;99.90
7708;DHT22;3896;48.758;8.888;2023-06-22T05:50:15;20.00;99.90
7708;DHT22;3896;48.758;8.888;2023-06-22T05:52:42;20.10;99.90
7708;DHT22;3896;48.758;8.888;2023-06-22T05:55:07;20.10;99.90
7708;DHT22;3896;48.758;8.888;2023-06-22T05:57:33;20.20;99.90
7708;DHT22;3896;48.758;8.888;2023-06-22T05:59:59;20.20;99.90
7708;DHT22;3896;48.758;8.888;2023-06-22T06:02:24;20.30;99.90
7708;DHT22;3896;48.758;8.888;2023-06-22T06:04:50;20.40;99.90
7708;DHT22;3896;48.758;8.888;2023-06-22T06:07:18;20.50;99.90
7708;DHT22;3896;48.758;8.888;2023-06-22T06:09:43;20.50;99.90
7708;DHT22;3896;48.758;8.888;2023-06-22T06:12:09;20.60;99.90
7708;DHT22;3896;48.758;8.888;2023-06-22T06:14:34;20.60;99.90
7708;DHT22;3896;48.758;8.888;2023-06-22T06:17:00;20.70;99.90
7708;DHT22;3896;48.758;8.888;2023-06-22T06:19:25;20.70;99.90
7708;DHT22;3896;48.758;8.888;2023-06-22T06:21:51;20.80;99.90
7708;DHT22;3896;48.758;8.888;2023-06-22T06:24:17;20.90;99.90
7708;DHT22;3896;48.758;8.888;2023-06-22T06:26:42;20.90;99.90
7708;DHT22;3896;48.758;8.888;2023-06-22T06:29:08;21.00;99.90
7708;DHT22;3896;48.758;8.888;2023-06-22T06:31:33;21.10;99.90
7708;DHT22;3896;48.758;8.888;2023-06-22T06:33:59;21.20;99.90
7708;DHT22;3896;48.758;8.888;2023-06-22T06:36:24;21.30;99.90
7708;DHT22;3896;48.758;8.888;2023-06-22T06:38:50;21.30;99.90
7708;DHT22;3896;48.758;8.888;2023-06-22T06:41:16;21.40;99.90
7708;DHT22;3896;48.758;8.888;2023-06-22T06:43:42;21.50;99.90
7708;DHT22;3896;48.758;8.888;2023-06-22T06:46:10;21.60;99.90
7708;DHT22;3896;48.758;8.888;2023-06-22T06:48:36;21.70;99.90
7708;DHT22;3896;48.758;8.888;2023-06-22T06:51:02;21.80;99.90
7708;DHT22;3896;48.758;8.888;2023-06-22T06:53:27;21.80;99.90
7708;DHT22;3896;48.758;8.888;2023-06-22T06:55:54;21.90;99.90
7708;DHT22;3896;48.758;8.888;2023-06-22T06:58:19;22.00;99.90
7708;DHT22;3896;48.758;8.888;2023-06-22T07:00:45;22.10;99.90
7708;DHT22;3896;48.758;8.888;2023-06-22T07:03:11;22.20;99.90
7708;DHT22;3896;48.758;8.888;2023-06-22T07:05:36;22.30;99.90
7708;DHT22;3896;48.758;8.888;2023-06-22T07:08:02;22.40;99.90
7708;DHT22;3896;48.758;8.888;2023-06-22T07:10:28;22.40;99.90
7708;DHT22;3896;48.758;8.888;2023-06-22T07:12:54;22.50;99.90
7708;DHT22;3896;48.758;8.888;2023-06-22T07:15:20;22.60;99.90
7708;DHT22;3896;48.758;8.888;2023-06-22T07:17:45;22.70;99.90
7708;DHT22;3896;48.758;8.888;2023-06-22T07:20:11;22.80;99.90
7708;DHT22;3896;48.758;8.888;2023-06-22T07:22:42;22.90;99.90
7708;DHT22;3896;48.758;8.888;2023-06-22T07:25:08;23.00;99.90
7708;DHT22;3896;48.758;8.888;2023-06-22T07:27:37;23.10;99.90
7708;DHT22;3896;48.758;8.888;2023-06-22T07:30:03;23.20;99.90
7708;DHT22;3896;48.758;8.888;2023-06-22T07:32:29;23.20;99.90
7708;DHT22;3896;48.758;8.888;2023-06-22T07:34:54;23.40;99.90
7708;DHT22;3896;48.758;8.888;2023-06-22T07:37:21;23.50;99.90
7708;DHT22;3896;48.758;8.888;2023-06-22T07:39:46;23.60;99.90
7708;DHT22;3896;48.758;8.888;2023-06-22T07:42:12;23.70;99.90
7708;DHT22;3896;48.758;8.888;2023-06-22T07:44:37;23.80;99.90
7708;DHT22;3896;48.758;8.888;2023-06-22T07:47:03;23.90;99.90
7708;DHT22;3896;48.758;8.888;2023-06-22T07:49:29;24.00;99.90
7708;DHT22;3896;48.758;8.888;2023-06-22T07:51:54;24.10;99.90
7708;DHT22;3896;48.758;8.888;2023-06-22T07:54:20;24.20;99.90
7708;DHT22;3896;48.758;8.888;2023-06-22T07:56:46;24.30;99.90
7708;DHT22;3896;48.758;8.888;2023-06-22T07:59:12;24.40;99.20
7708;DHT22;3896;48.758;8.888;2023-06-22T08:01:37;24.50;98.80
7708;DHT22;3896;48.758;8.888;2023-06-22T08:04:03;24.60;98.70
7708;DHT22;3896;48.758;8.888;2023-06-22T08:06:30;24.80;97.80
7708;DHT22;3896;48.758;8.888;2023-06-22T08:08:56;24.90;97.10
7708;DHT22;3896;48.758;8.888;2023-06-22T08:11:22;25.00;96.60
7708;DHT22;3896;48.758;8.888;2023-06-22T08:13:49;25.10;96.60
7708;DHT22;3896;48.758;8.888;2023-06-22T08:16:15;25.30;96.00
7708;DHT22;3896;48.758;8.888;2023-06-22T08:18:40;25.40;95.60
7708;DHT22;3896;48.758;8.888;2023-06-22T08:21:06;25.50;95.20
7708;DHT22;3896;48.758;8.888;2023-06-22T08:23:31;25.60;94.80
7708;DHT22;3896;48.758;8.888;2023-06-22T08:25:57;25.70;94.00
7708;DHT22;3896;48.758;8.888;2023-06-22T08:28:23;25.80;93.40
7708;DHT22;3896;48.758;8.888;2023-06-22T08:30:48;26.00;93.00
7708;DHT22;3896;48.758;8.888;2023-06-22T08:33:14;26.00;92.20
7708;DHT22;3896;48.758;8.888;2023-06-22T08:35:39;26.10;91.70
7708;DHT22;3896;48.758;8.888;2023-06-22T08:38:05;26.20;91.20
7708;DHT22;3896;48.758;8.888;2023-06-22T08:40:30;26.30;90.70
7708;DHT22;3896;48.758;8.888;2023-06-22T08:42:56;26.40;90.50
7708;DHT22;3896;48.758;8.888;2023-06-22T08:45:21;26.40;90.10
7708;DHT22;3896;48.758;8.888;2023-06-22T08:47:47;26.50;90.20
7708;DHT22;3896;48.758;8.888;2023-06-22T08:50:13;26.50;90.50
7708;DHT22;3896;48.758;8.888;2023-06-22T08:52:40;26.60;90.10
7708;DHT22;3896;48.758;8.888;2023-06-22T08:55:09;26.70;90.00
7708;DHT22;3896;48.758;8.888;2023-06-22T08:57:34;26.80;88.50
7708;DHT22;3896;48.758;8.888;2023-06-22T09:00:04;26.90;87.90
7708;DHT22;3896;48.758;8.888;2023-06-22T09:02:30;27.00;88.20
7708;DHT22;3896;48.758;8.888;2023-06-22T09:04:57;27.10;88.50
7708;DHT22;3896;48.758;8.888;2023-06-22T09:07:23;27.20;87.20
7708;DHT22;3896;48.758;8.888;2023-06-22T09:09:50;27.30;86.10
7708;DHT22;3896;48.758;8.888;2023-06-22T09:12:17;27.40;85.40
7708;DHT22;3896;48.758;8.888;2023-06-22T09:14:45;27.40;84.50
7708;DHT22;3896;48.758;8.888;2023-06-22T09:17:12;27.50;83.30
7708;DHT22;3896;48.758;8.888;2023-06-22T09:19:38;27.60;82.90
7708;DHT22;3896;48.758;8.888;2023-06-22T09:22:04;27.70;83.20
7708;DHT22;3896;48.758;8.888;2023-06-22T09:24:31;27.70;83.20
7708;DHT22;3896;48.758;8.888;2023-06-22T09:26:56;27.80;83.30
7708;DHT22;3896;48.758;8.888;2023-06-22T09:29:22;27.90;83.30
7708;DHT22;3896;48.758;8.888;2023-06-22T09:31:47;28.00;82.80
7708;DHT22;3896;48.758;8.888;2023-06-22T09:34:13;28.10;82.10
7708;DHT22;3896;48.758;8.888;2023-06-22T09:36:41;28.20;81.60
7708;DHT22;3896;48.758;8.888;2023-06-22T09:39:06;28.40;81.40
7708;DHT22;3896;48.758;8.888;2023-06-22T09:41:32;28.50;80.90
7708;DHT22;3896;48.758;8.888;2023-06-22T09:43:57;28.70;79.80
7708;DHT22;3896;48.758;8.888;2023-06-22T09:46:23;28.80;78.90
7708;DHT22;3896;48.758;8.888;2023-06-22T09:48:51;29.00;78.20
7708;DHT22;3896;48.758;8.888;2023-06-22T09:51:16;29.10;77.70
7708;DHT22;3896;48.758;8.888;2023-06-22T09:53:42;29.20;77.50
7708;DHT22;3896;48.758;8.888;2023-06-22T09:56:08;29.40;76.30
7708;DHT22;3896;48.758;8.888;2023-06-22T09:58:40;29.60;76.10
7708;DHT22;3896;48.758;8.888;2023-06-22T10:01:05;29.70;75.20
7708;DHT22;3896;48.758;8.888;2023-06-22T10:03:31;29.80;73.60
7708;DHT22;3896;48.758;8.888;2023-06-22T10:05:57;30.00;72.80
7708;DHT22;3896;48.758;8.888;2023-06-22T10:08:22;30.10;70.80
7708;DHT22;3896;48.758;8.888;2023-06-22T10:10:48;30.20;70.90
7708;DHT22;3896;48.758;8.888;2023-06-22T10:13:13;30.30;69.20
7708;DHT22;3896;48.758;8.888;2023-06-22T10:15:40;30.50;69.90
7708;DHT22;3896;48.758;8.888;2023-06-22T10:18:05;30.50;69.80
7708;DHT22;3896;48.758;8.888;2023-06-22T10:20:31;30.70;70.00
7708;DHT22;3896;48.758;8.888;2023-06-22T10:22:57;30.80;68.90
7708;DHT22;3896;48.758;8.888;2023-06-22T10:25:22;30.90;67.90
7708;DHT22;3896;48.758;8.888;2023-06-22T10:27:48;31.10;67.50
7708;DHT22;3896;48.758;8.888;2023-06-22T10:30:14;31.10;67.00
7708;DHT22;3896;48.758;8.888;2023-06-22T10:32:41;31.30;66.30
7708;DHT22;3896;48.758;8.888;2023-06-22T10:35:08;31.40;65.60
7708;DHT22;3896;48.758;8.888;2023-06-22T10:37:36;31.60;65.50
7708;DHT22;3896;48.758;8.888;2023-06-22T10:40:02;31.70;65.50
7708;DHT22;3896;48.758;8.888;2023-06-22T10:42:28;31.80;65.40
7708;DHT22;3896;48.758;8.888;2023-06-22T10:44:54;31.90;63.70
7708;DHT22;3896;48.758;8.888;2023-06-22T10:47:20;31.90;62.50
7708;DHT22;3896;48.758;8.888;2023-06-22T10:49:45;32.00;62.60
7708;DHT22;3896;48.758;8.888;2023-06-22T10:52:11;32.10;62.60
7708;DHT22;3896;48.758;8.888;2023-06-22T10:54:37;32.20;61.70
7708;DHT22;3896;48.758;8.888;2023-06-22T10:57:03;32.30;60.70
7708;DHT22;3896;48.758;8.888;2023-06-22T10:59:29;32.40;60.60
7708;DHT22;3896;48.758;8.888;2023-06-22T11:01:58;32.50;60.40
7708;DHT22;3896;48.758;8.888;2023-06-22T11:04:24;32.60;60.10
7708;DHT22;3896;48.758;8.888;2023-06-22T11:06:50;32.70;59.30
7708;DHT22;3896;48.758;8.888;2023-06-22T11:09:16;32.80;58.90
7708;DHT22;3896;48.758;8.888;2023-06-22T11:11:46;32.90;58.80
7708;DHT22;3896;48.758;8.888;2023-06-22T11:14:12;33.00;58.40
7708;DHT22;3896;48.758;8.888;2023-06-22T11:16:37;33.10;58.00
7708;DHT22;3896;48.758;8.888;2023-06-22T11:19:05;33.10;57.80
7708;DHT22;3896;48.758;8.888;2023-06-22T11:21:30;33.20;57.50
7708;DHT22;3896;48.758;8.888;2023-06-22T11:23:57;33.30;57.30
7708;DHT22;3896;48.758;8.888;2023-06-22T11:26:22;33.30;57.00
7708;DHT22;3896;48.758;8.888;2023-06-22T11:28:48;33.40;56.80
7708;DHT22;3896;48.758;8.888;2023-06-22T11:31:14;33.40;56.80
7708;DHT22;3896;48.758;8.888;2023-06-22T11:33:39;33.50;56.70
7708;DHT22;3896;48.758;8.888;2023-06-22T11:36:05;33.50;56.60
7708;DHT22;3896;48.758;8.888;2023-06-22T11:38:31;33.50;56.20
7708;DHT22;3896;48.758;8.888;2023-06-22T11:40:58;33.60;56.00
7708;DHT22;3896;48.758;8.888;2023-06-22T11:43:23;33.60;55.60
7708;DHT22;3896;48.758;8.888;2023-06-22T11:45:49;33.60;55.10
7708;DHT22;3896;48.758;8.888;2023-06-22T11:48:15;33.60;54.80
7708;DHT22;3896;48.758;8.888;2023-06-22T11:50:41;33.60;54.50
7708;DHT22;3896;48.758;8.888;2023-06-22T11:53:06;33.60;54.70
7708;DHT22;3896;48.758;8.888;2023-06-22T11:55:32;33.60;55.00
7708;DHT22;3896;48.758;8.888;2023-06-22T11:57:58;33.60;54.60
7708;DHT22;3896;48.758;8.888;2023-06-22T12:00:26;33.60;54.70
7708;DHT22;3896;48.758;8.888;2023-06-22T12:02:52;33.60;54.90
7708;DHT22;3896;48.758;8.888;2023-06-22T12:05:21;33.60;54.90
7708;DHT22;3896;48.758;8.888;2023-06-22T12:07:48;33.50;55.00
7708;DHT22;3896;48.758;8.888;2023-06-22T12:10:13;33.50;55.20
7708;DHT22;3896;48.758;8.888;2023-06-22T12:12:39;33.50;55.10
7708;DHT22;3896;48.758;8.888;2023-06-22T12:15:05;33.50;55.20
7708;DHT22;3896;48.758;8.888;2023-06-22T12:17:31;33.50;55.40
7708;DHT22;3896;48.758;8.888;2023-06-22T12:19:56;33.50;55.30
7708;DHT22;3896;48.758;8.888;2023-06-22T12:22:22;33.50;55.10
7708;DHT22;3896;48.758;8.888;2023-06-22T12:24:47;33.40;55.20
7708;DHT22;3896;48.758;8.888;2023-06-22T12:27:14;33.40;55.60
7708;DHT22;3896;48.758;8.888;2023-06-22T12:29:41;33.40;55.60
7708;DHT22;3896;48.758;8.888;2023-06-22T12:32:07;33.50;56.00
7708;DHT22;3896;48.758;8.888;2023-06-22T12:34:33;33.50;56.00
7708;DHT22;3896;48.758;8.888;2023-06-22T12:36:58;33.50;55.70
7708;DHT22;3896;48.758;8.888;2023-06-22T12:39:24;33.60;55.70
7708;DHT22;3896;48.758;8.888;2023-06-22T12:41:49;33.60;55.70
7708;DHT22;3896;48.758;8.888;2023-06-22T12:44:15;33.60;55.90
7708;DHT22;3896;48.758;8.888;2023-06-22T12:46:40;33.60;55.90
7708;DHT22;3896;48.758;8.888;2023-06-22T12:49:06;33.60;55.70
7708;DHT22;3896;48.758;8.888;2023-06-22T12:51:32;33.60;55.70
7708;DHT22;3896;48.758;8.888;2023-06-22T12:53:57;33.60;55.70
7708;DHT22;3896;48.758;8.888;2023-06-22T12:56:23;33.60;55.70
7708;DHT22;3896;48.758;8.888;2023-06-22T12:58:48;33.60;55.40
7708;DHT22;3896;48.758;8.888;2023-06-22T13:01:14;33.60;55.40
7708;DHT22;3896;48.758;8.888;2023-06-22T13:03:41;33.60;55.40
7708;DHT22;3896;48.758;8.888;2023-06-22T13:06:06;33.60;55.70
7708;DHT22;3896;48.758;8.888;2023-06-22T13:08:32;33.60;55.90
7708;DHT22;3896;48.758;8.888;2023-06-22T13:10:57;33.60;56.30
7708;DHT22;3896;48.758;8.888;2023-06-22T13:13:23;33.50;56.70
7708;DHT22;3896;48.758;8.888;2023-06-22T13:15:53;33.50;56.50
7708;DHT22;3896;48.758;8.888;2023-06-22T13:18:19;33.50;56.70
7708;DHT22;3896;48.758;8.888;2023-06-22T13:20:45;33.40;56.30
7708;DHT22;3896;48.758;8.888;2023-06-22T13:23:11;33.40;56.10
7708;DHT22;3896;48.758;8.888;2023-06-22T13:25:36;33.30;56.10
7708;DHT22;3896;48.758;8.888;2023-06-22T13:28:02;33.40;56.30
7708;DHT22;3896;48.758;8.888;2023-06-22T13:30:27;33.40;56.30
7708;DHT22;3896;48.758;8.888;2023-06-22T13:32:53;33.40;55.90
7708;DHT22;3896;48.758;8.888;2023-06-22T13:35:19;33.40;56.10
7708;DHT22;3896;48.758;8.888;2023-06-22T13:37:44;33.30;56.00
7708;DHT22;3896;48.758;8.888;2023-06-22T13:40:10;33.40;55.80
7708;DHT22;3896;48.758;8.888;2023-06-22T13:42:36;33.40;55.60
7708;DHT22;3896;48.758;8.888;2023-06-22T13:45:02;33.40;55.20
7708;DHT22;3896;48.758;8.888;2023-06-22T13:47:29;33.50;55.10
7708;DHT22;3896;48.758;8.888;2023-06-22T13:49:54;33.50;54.80
7708;DHT22;3896;48.758;8.888;2023-06-22T13:52:20;33.50;54.70
7708;DHT22;3896;48.758;8.888;2023-06-22T13:54:45;33.50;54.70
7708;DHT22;3896;48.758;8.888;2023-06-22T13:57:11;33.60;54.80
7708;DHT22;3896;48.758;8.888;2023-06-22T13:59:36;33.60;55.30
7708;DHT22;3896;48.758;8.888;2023-06-22T14:02:02;33.60;55.70
7708;DHT22;3896;48.758;8.888;2023-06-22T14:04:28;33.60;56.10
7708;DHT22;3896;48.758;8.888;2023-06-22T14:06:54;33.60;56.30
7708;DHT22;3896;48.758;8.888;2023-06-22T14:09:21;33.60;56.90
7708;DHT22;3896;48.758;8.888;2023-06-22T14:11:46;33.60;57.60
7708;DHT22;3896;48.758;8.888;2023-06-22T14:14:12;33.60;55.80
7708;DHT22;3896;48.758;8.888;2023-06-22T14:16:37;33.70;54.60
7708;DHT22;3896;48.758;8.888;2023-06-22T14:19:03;33.70;54.40
7708;DHT22;3896;48.758;8.888;2023-06-22T14:21:29;33.80;54.00
7708;DHT22;3896;48.758;8.888;2023-06-22T14:23:54;33.80;52.40
7708;DHT22;3896;48.758;8.888;2023-06-22T14:26:20;33.90;50.90
7708;DHT22;3896;48.758;8.888;2023-06-22T14:28:47;33.90;49.10
7708;DHT22;3896;48.758;8.888;2023-06-22T14:31:18;34.00;48.20
7708;DHT22;3896;48.758;8.888;2023-06-22T14:33:46;34.10;47.20
7708;DHT22;3896;48.758;8.888;2023-06-22T14:36:13;34.10;46.10
7708;DHT22;3896;48.758;8.888;2023-06-22T14:38:39;34.10;45.30
7708;DHT22;3896;48.758;8.888;2023-06-22T14:41:04;34.20;44.60
7708;DHT22;3896;48.758;8.888;2023-06-22T14:43:30;34.20;44.70
7708;DHT22;3896;48.758;8.888;2023-06-22T14:45:55;34.20;45.00
7708;DHT22;3896;48.758;8.888;2023-06-22T14:48:21;34.30;45.00
7708;DHT22;3896;48.758;8.888;2023-06-22T14:50:46;34.30;45.20
7708;DHT22;3896;48.758;8.888;2023-06-22T14:53:12;34.30;44.60
7708;DHT22;3896;48.758;8.888;2023-06-22T14:55:39;34.40;43.90
7708;DHT22;3896;48.758;8.888;2023-06-22T14:58:05;34.50;43.30
7708;DHT22;3896;48.758;8.888;2023-06-22T15:00:30;34.60;42.60
7708;DHT22;3896;48.758;8.888;2023-06-22T15:02:56;34.60;42.00
7708;DHT22;3896;48.758;8.888;2023-06-22T15:05:22;34.70;42.30
7708;DHT22;3896;48.758;8.888;2023-06-22T15:07:49;34.70;41.80
7708;DHT22;3896;48.758;8.888;2023-06-22T15:10:15;34.80;41.30
7708;DHT22;3896;48.758;8.888;2023-06-22T15:12:40;34.80;41.10
7708;DHT22;3896;48.758;8.888;2023-06-22T15:15:06;34.80;40.90
7708;DHT22;3896;48.758;8.888;2023-06-22T15:17:32;34.90;41.20
7708;DHT22;3896;48.758;8.888;2023-06-22T15:19:58;34.90;41.20
7708;DHT22;3896;48.758;8.888;2023-06-22T15:22:24;34.90;41.60
7708;DHT22;3896;48.758;8.888;2023-06-22T15:24:49;34.90;41.60
7708;DHT22;3896;48.758;8.888;2023-06-22T15:27:18;34.90;41.60
7708;DHT22;3896;48.758;8.888;2023-06-22T15:29:44;34.80;41.40
7708;DHT22;3896;48.758;8.888;2023-06-22T15:32:10;34.80;41.30
7708;DHT22;3896;48.758;8.888;2023-06-22T15:34:35;34.80;41.40
7708;DHT22;3896;48.758;8.888;2023-06-22T15:37:01;34.70;42.10
7708;DHT22;3896;48.758;8.888;2023-06-22T15:39:26;34.70;41.70
7708;DHT22;3896;48.758;8.888;2023-06-22T15:41:53;34.60;41.50
7708;DHT22;3896;48.758;8.888;2023-06-22T15:44:21;34.60;41.40
7708;DHT22;3896;48.758;8.888;2023-06-22T15:46:47;34.60;41.40
7708;DHT22;3896;48.758;8.888;2023-06-22T15:49:14;34.50;41.90
7708;DHT22;3896;48.758;8.888;2023-06-22T15:51:40;34.50;41.80
7708;DHT22;3896;48.758;8.888;2023-06-22T15:54:06;34.50;41.80
7708;DHT22;3896;48.758;8.888;2023-06-22T15:56:31;34.50;41.70
7708;DHT22;3896;48.758;8.888;2023-06-22T15:58:57;34.50;42.10